createdAt,value
2023-03-17T00:01:51.491Z,44.85
2023-03-17T00:04:20.073Z,46.85
2023-03-17T00:06:48.663Z,47.90
2023-03-17T00:09:18.587Z,47.00
2023-03-17T00:11:47.732Z,47.95
2023-03-17T00:14:17.018Z,44.65
2023-03-17T00:16:49.236Z,47.22
2023-03-17T00:19:18.112Z,39.85
2023-03-17T00:21:47.085Z,42.42
2023-03-17T00:24:15.849Z,42.67
2023-03-17T00:26:44.175Z,41.33
2023-03-17T00:29:12.055Z,42.42
2023-03-17T00:31:41.723Z,43.13
2023-03-17T00:34:12.228Z,45.35
2023-03-17T00:36:40.568Z,43.08
2023-03-17T00:41:41.185Z,46.80
2023-03-17T00:44:09.721Z,44.08
2023-03-17T00:46:38.786Z,46.15
2023-03-17T00:51:44.873Z,46.33
2023-03-17T00:54:14.504Z,46.20
2023-03-17T00:56:43.754Z,43.05
2023-03-17T00:59:19.511Z,44.42
2023-03-17T01:01:49.037Z,43.20
2023-03-17T01:04:19.478Z,41.85
2023-03-17T01:06:48.115Z,39.47
2023-03-17T01:09:18.471Z,41.47
2023-03-17T01:11:48.543Z,39.72
2023-03-17T01:14:17.341Z,39.50
2023-03-17T01:16:45.785Z,39.58
2023-03-17T01:19:14.804Z,38.33
2023-03-17T01:21:44.319Z,40.03
2023-03-17T01:24:12.778Z,38.65
2023-03-17T01:26:41.889Z,37.00
2023-03-17T01:29:09.839Z,35.13
2023-03-17T01:31:39.177Z,37.53
2023-03-17T01:34:07.305Z,36.22
2023-03-17T01:36:35.634Z,34.58
2023-03-17T01:39:07.508Z,34.63
2023-03-17T01:41:36.460Z,34.45
2023-03-17T01:44:05.249Z,34.55
2023-03-17T01:46:35.435Z,33.55
2023-03-17T01:49:17.273Z,33.63
2023-03-17T01:51:51.608Z,32.47
2023-03-17T01:54:25.197Z,32.55
2023-03-17T01:56:55.235Z,33.25
2023-03-17T01:59:27.052Z,33.00
2023-03-17T02:01:58.862Z,32.88
2023-03-17T02:04:26.932Z,31.93
2023-03-17T02:06:58.472Z,32.28
2023-03-17T02:09:29.137Z,30.90
2023-03-17T02:11:57.811Z,30.42
2023-03-17T02:14:26.022Z,33.80
2023-03-17T02:16:54.797Z,32.20
2023-03-17T02:19:23.083Z,32.10
2023-03-17T02:21:54.438Z,31.00
2023-03-17T02:24:27.473Z,31.48
2023-03-17T02:26:57.524Z,31.00
2023-03-17T02:29:25.507Z,31.13
2023-03-17T02:31:54.605Z,30.50
2023-03-17T02:34:22.546Z,27.23
2023-03-17T02:36:52.116Z,26.30
2023-03-17T02:39:20.089Z,28.15
2023-03-17T02:41:48.277Z,27.20
2023-03-17T02:44:16.243Z,27.35
2023-03-17T02:46:44.547Z,25.77
2023-03-17T02:49:12.894Z,26.08
2023-03-17T02:51:41.120Z,25.33
2023-03-17T02:54:10.559Z,24.10
2023-03-17T02:56:38.816Z,25.23
2023-03-17T02:59:07.265Z,23.73
2023-03-17T03:01:36.010Z,23.85
2023-03-17T03:04:04.075Z,21.85
2023-03-17T03:06:32.715Z,21.85
2023-03-17T03:09:00.848Z,22.45
2023-03-17T03:11:30.484Z,22.92
2023-03-17T03:13:58.678Z,23.10
2023-03-17T03:16:26.986Z,22.63
2023-03-17T03:18:55.050Z,22.60
2023-03-17T03:21:23.262Z,23.90
2023-03-17T03:23:51.223Z,21.80
2023-03-17T03:26:19.617Z,23.00
2023-03-17T03:28:49.160Z,19.58
2023-03-17T03:31:17.485Z,19.50
2023-03-17T03:33:45.663Z,21.05
2023-03-17T03:36:14.897Z,20.13
2023-03-17T03:38:42.883Z,19.20
2023-03-17T03:41:11.174Z,18.90
2023-03-17T03:43:39.067Z,17.88
2023-03-17T03:46:08.795Z,19.42
2023-03-17T03:48:36.797Z,18.38
2023-03-17T03:51:05.224Z,19.50
2023-03-17T03:53:33.212Z,20.05
2023-03-17T03:56:01.974Z,19.65
2023-03-17T03:58:30.014Z,18.75
2023-03-17T04:00:58.179Z,20.50
2023-03-17T04:03:27.956Z,19.83
2023-03-17T04:05:56.171Z,21.45
2023-03-17T04:08:24.061Z,19.50
2023-03-17T04:10:52.238Z,19.25
2023-03-17T04:13:20.163Z,19.60
2023-03-17T04:15:48.647Z,18.25
2023-03-17T04:18:16.749Z,18.33
2023-03-17T04:20:46.359Z,18.77
2023-03-17T04:23:14.458Z,17.73
2023-03-17T04:25:42.744Z,17.75
2023-03-17T04:28:10.858Z,18.80
2023-03-17T04:30:39.306Z,18.52
2023-03-17T04:33:07.336Z,16.60
2023-03-17T04:35:35.661Z,17.70
2023-03-17T04:38:04.987Z,18.77
2023-03-17T04:40:33.311Z,18.30
2023-03-17T04:43:03.451Z,17.25
2023-03-17T04:45:32.477Z,16.73
2023-03-17T04:48:00.571Z,16.92
2023-03-17T04:50:29.131Z,16.63
2023-03-17T04:52:57.495Z,15.73
2023-03-17T04:55:27.509Z,16.20
2023-03-17T04:57:55.525Z,15.75
2023-03-17T05:00:23.859Z,17.08
2023-03-17T05:02:52.124Z,17.88
2023-03-17T05:05:20.349Z,16.38
2023-03-17T05:07:48.303Z,16.73
2023-03-17T05:10:16.708Z,16.85
2023-03-17T05:12:46.179Z,18.90
2023-03-17T05:15:14.383Z,18.45
2023-03-17T05:17:42.457Z,17.48
2023-03-17T05:20:12.512Z,17.25
2023-03-17T05:22:41.136Z,17.70
2023-03-17T05:25:09.912Z,16.65
2023-03-17T05:27:38.021Z,16.92
2023-03-17T05:30:08.855Z,15.95
2023-03-17T05:32:37.258Z,16.83
2023-03-17T05:35:06.135Z,16.23
2023-03-17T05:37:34.152Z,16.40
2023-03-17T05:40:02.957Z,16.30
2023-03-17T05:42:30.988Z,17.13
2023-03-17T05:44:59.414Z,16.73
2023-03-17T05:47:28.704Z,16.52
2023-03-17T05:49:57.046Z,15.50
2023-03-17T05:52:24.992Z,17.10
2023-03-17T05:54:53.467Z,17.15
2023-03-17T05:57:21.825Z,16.10
2023-03-17T05:59:50.869Z,16.90
2023-03-17T06:02:19.148Z,17.48
2023-03-17T06:04:48.946Z,15.57
2023-03-17T06:07:17.420Z,17.27
2023-03-17T06:09:45.617Z,18.30
2023-03-17T06:12:13.884Z,17.15
2023-03-17T06:14:42.046Z,15.18
2023-03-17T06:17:10.131Z,17.23
2023-03-17T06:19:38.471Z,15.80
2023-03-17T06:22:07.989Z,19.10
2023-03-17T06:24:36.398Z,16.92
2023-03-17T06:27:04.419Z,16.35
2023-03-17T06:29:32.605Z,16.15
2023-03-17T06:32:17.029Z,15.57
2023-03-17T06:34:48.269Z,14.73
2023-03-17T06:37:17.812Z,15.48
2023-03-17T06:39:46.523Z,15.57
2023-03-17T06:42:14.963Z,15.88
2023-03-17T06:44:43.156Z,15.60
2023-03-17T06:47:11.267Z,16.75
2023-03-17T06:49:39.479Z,16.48
2023-03-17T06:52:08.640Z,16.08
2023-03-17T06:54:38.434Z,14.98
2023-03-17T06:57:06.879Z,14.35
2023-03-17T06:59:35.392Z,14.48
2023-03-17T07:02:03.644Z,15.00
2023-03-17T07:04:31.998Z,16.02
2023-03-17T07:07:00.672Z,16.70
2023-03-17T07:09:29.450Z,15.40
2023-03-17T07:11:58.763Z,14.65
2023-03-17T07:14:27.027Z,15.63
2023-03-17T07:16:55.653Z,14.50
2023-03-17T07:19:23.953Z,13.30
2023-03-17T07:21:52.038Z,12.88
2023-03-17T07:24:20.216Z,13.18
2023-03-17T07:26:49.060Z,12.65
2023-03-17T07:29:19.185Z,12.52
2023-03-17T07:31:47.138Z,11.25
2023-03-17T07:34:15.597Z,11.10
2023-03-17T07:36:43.795Z,11.88
2023-03-17T07:39:14.121Z,13.68
2023-03-17T07:41:42.766Z,11.93
2023-03-17T07:44:11.296Z,12.35
2023-03-17T07:46:41.078Z,12.60
2023-03-17T07:49:10.015Z,10.63
2023-03-17T07:51:38.719Z,10.93
2023-03-17T07:54:06.932Z,12.82
2023-03-17T07:56:35.190Z,10.80
2023-03-17T07:59:03.450Z,11.15
2023-03-17T08:01:31.497Z,10.35
2023-03-17T08:04:01.026Z,10.55
2023-03-17T08:06:30.081Z,10.90
2023-03-17T08:08:58.335Z,11.30
2023-03-17T08:11:28.944Z,10.43
2023-03-17T08:13:57.527Z,10.55
2023-03-17T08:16:26.130Z,20.10
2023-03-17T08:18:54.454Z,10.52
2023-03-17T08:21:23.692Z,8.98
2023-03-17T08:23:51.877Z,10.25
2023-03-17T08:26:20.656Z,10.38
2023-03-17T08:28:50.254Z,10.32
2023-03-17T08:31:20.836Z,10.60
2023-03-17T08:33:50.963Z,16.52
2023-03-17T08:36:20.324Z,16.92
2023-03-17T08:38:50.154Z,16.33
2023-03-17T08:41:20.357Z,16.75
2023-03-17T08:43:49.215Z,16.08
2023-03-17T08:46:21.341Z,16.80
2023-03-17T08:48:52.007Z,15.73
2023-03-17T08:51:24.087Z,14.50
2023-03-17T08:53:54.988Z,7.72
2023-03-17T08:56:23.225Z,7.18
2023-03-17T08:58:52.106Z,7.68
2023-03-17T09:01:21.329Z,5.78
2023-03-17T09:03:50.785Z,7.10
2023-03-17T09:06:18.720Z,7.50
2023-03-17T09:08:47.626Z,7.15
2023-03-17T09:11:18.463Z,6.60
2023-03-17T09:13:47.481Z,6.32
2023-03-17T09:16:16.076Z,6.88
2023-03-17T09:18:44.416Z,6.10
2023-03-17T09:21:13.180Z,6.43
2023-03-17T09:23:42.148Z,5.65
2023-03-17T09:26:10.575Z,6.63
2023-03-17T09:28:40.134Z,6.07
2023-03-17T09:31:11.553Z,6.00
2023-03-17T09:33:40.649Z,5.78
2023-03-17T09:36:09.286Z,5.75
2023-03-17T09:38:37.945Z,5.13
2023-03-17T09:41:24.810Z,5.03
2023-03-17T09:43:57.948Z,4.68
2023-03-17T09:46:35.394Z,4.60
2023-03-17T09:49:04.752Z,5.32
2023-03-17T09:51:33.267Z,5.22
2023-03-17T09:54:03.466Z,5.20
2023-03-17T09:56:33.658Z,5.65
2023-03-17T09:59:07.477Z,4.75
2023-03-17T10:01:36.455Z,5.32
2023-03-17T10:04:05.106Z,5.15
2023-03-17T10:06:38.835Z,4.38
2023-03-17T10:09:15.335Z,5.13
2023-03-17T10:11:44.724Z,4.82
2023-03-17T10:14:27.605Z,5.43
2023-03-17T10:16:59.405Z,5.20
2023-03-17T10:19:30.520Z,4.97
2023-03-17T10:22:02.612Z,4.60
2023-03-17T10:24:32.670Z,4.45
2023-03-17T10:27:04.669Z,3.85
2023-03-17T10:32:02.685Z,4.25
2023-03-17T10:34:33.185Z,4.13
2023-03-17T10:37:04.308Z,3.00
2023-03-17T10:39:33.138Z,2.90
2023-03-17T10:42:09.644Z,2.63
2023-03-17T10:44:45.338Z,3.78
2023-03-17T10:47:26.664Z,3.72
2023-03-17T10:49:56.224Z,3.70
2023-03-17T10:52:28.540Z,3.50
2023-03-17T10:54:58.450Z,4.28
2023-03-17T10:57:26.404Z,4.07
2023-03-17T10:59:57.051Z,3.97
2023-03-17T11:02:28.159Z,4.97
2023-03-17T11:05:00.743Z,3.83
2023-03-17T11:07:32.383Z,4.10
2023-03-17T11:10:03.472Z,4.63
2023-03-17T11:12:36.634Z,4.57
2023-03-17T11:15:11.760Z,4.43
2023-03-17T11:17:45.410Z,4.55
2023-03-17T11:20:26.518Z,4.50
2023-03-17T11:23:00.305Z,5.05
2023-03-17T11:25:29.807Z,4.05
2023-03-17T11:28:06.781Z,4.00
2023-03-17T11:30:38.851Z,3.45
2023-03-17T11:33:14.095Z,3.60
2023-03-17T11:35:50.407Z,3.63
2023-03-17T11:38:22.118Z,3.58
2023-03-17T11:41:17.223Z,3.70
2023-03-17T11:43:55.628Z,4.53
2023-03-17T11:46:28.858Z,4.22
2023-03-17T11:49:02.772Z,3.55
2023-03-17T11:51:37.486Z,3.60
2023-03-17T11:54:10.735Z,3.00
2023-03-17T11:56:43.075Z,3.08
2023-03-17T11:59:25.805Z,3.10
2023-03-17T12:02:00.571Z,3.28
2023-03-17T12:04:34.230Z,2.60
2023-03-17T12:07:09.021Z,2.45
2023-03-17T12:09:42.125Z,2.40
2023-03-17T12:12:15.847Z,2.38
2023-03-17T12:14:48.587Z,2.80
2023-03-17T12:17:22.167Z,3.47
2023-03-17T12:19:59.763Z,3.83
2023-03-17T12:22:32.791Z,3.97
2023-03-17T12:25:09.998Z,3.75
2023-03-17T12:27:42.483Z,4.15
2023-03-17T12:32:51.183Z,4.43
2023-03-17T12:35:27.795Z,4.75
2023-03-17T12:37:57.256Z,3.80
2023-03-17T12:40:29.464Z,4.68
2023-03-17T12:43:10.160Z,4.20
2023-03-17T12:46:04.087Z,3.85
2023-03-17T12:48:50.534Z,2.80
2023-03-17T12:51:44.663Z,2.42
2023-03-17T12:54:15.442Z,3.90
2023-03-17T12:56:46.303Z,3.58
2023-03-17T12:59:18.641Z,3.33
2023-03-17T13:04:21.955Z,2.92
2023-03-17T13:06:59.615Z,3.20
2023-03-17T13:09:43.940Z,2.80
2023-03-17T13:13:00.311Z,3.97
2023-03-17T13:15:48.647Z,3.22
2023-03-17T13:18:28.860Z,2.92
2023-03-17T13:21:14.897Z,3.15
2023-03-17T13:23:45.691Z,2.83
2023-03-17T13:26:15.278Z,3.33
2023-03-17T13:28:47.555Z,2.80
2023-03-17T13:31:32.563Z,3.17
2023-03-17T13:34:11.766Z,2.70
2023-03-17T13:36:53.248Z,2.47
2023-03-17T13:39:49.717Z,2.75
2023-03-17T13:42:41.243Z,2.90
2023-03-17T13:45:21.813Z,2.78
2023-03-17T13:47:52.448Z,2.33
2023-03-17T13:50:23.975Z,2.65
2023-03-17T13:52:57.370Z,3.10
2023-03-17T13:56:01.243Z,3.53
2023-03-17T13:58:35.191Z,4.25
2023-03-17T14:01:06.668Z,4.20
2023-03-17T14:03:41.363Z,4.63
2023-03-17T14:06:11.972Z,4.47
2023-03-17T14:08:46.718Z,4.13
2023-03-17T14:11:23.934Z,3.95
2023-03-17T14:14:08.060Z,3.65
2023-03-17T14:16:38.573Z,4.45
2023-03-17T14:19:14.074Z,4.15
2023-03-17T14:21:41.964Z,4.40
2023-03-17T14:24:21.789Z,4.25
2023-03-17T14:26:50.338Z,4.15
2023-03-17T14:29:21.304Z,4.80
2023-03-17T14:31:50.628Z,4.30
2023-03-17T14:34:22.361Z,4.03
2023-03-17T14:36:52.296Z,4.90
2023-03-17T14:39:25.873Z,4.22
2023-03-17T14:42:01.638Z,4.30
2023-03-17T14:44:37.222Z,4.95
2023-03-17T14:47:07.287Z,4.50
2023-03-17T14:49:35.569Z,4.70
2023-03-17T14:52:03.629Z,5.43
2023-03-17T14:54:34.708Z,5.13
2023-03-17T14:57:05.629Z,5.15
2023-03-17T14:59:35.971Z,4.75
2023-03-17T15:02:15.757Z,3.83
2023-03-17T15:04:52.399Z,3.92
2023-03-17T15:07:31.752Z,4.60
2023-03-17T15:10:02.820Z,4.10
2023-03-17T15:12:31.584Z,4.60
2023-03-17T15:15:05.457Z,3.88
2023-03-17T15:17:35.023Z,4.70
2023-03-17T15:20:06.319Z,4.90
2023-03-17T15:22:43.334Z,4.60
2023-03-17T15:25:35.253Z,4.45
2023-03-17T15:28:03.422Z,4.55
2023-03-17T15:30:44.285Z,3.88
2023-03-17T15:33:21.062Z,5.25
2023-03-17T15:35:49.869Z,4.15
2023-03-17T15:38:17.856Z,4.10
2023-03-17T15:40:47.410Z,4.28
2023-03-17T15:43:15.859Z,4.40
2023-03-17T15:45:45.420Z,6.03
2023-03-17T15:48:18.212Z,7.13
2023-03-17T15:50:46.812Z,7.88
2023-03-17T15:53:14.771Z,5.07
2023-03-17T15:55:43.082Z,6.15
2023-03-17T15:58:12.401Z,6.57
2023-03-17T16:00:40.859Z,6.28
2023-03-17T16:03:16.564Z,5.93
2023-03-17T16:05:44.751Z,6.68
2023-03-17T16:08:14.618Z,7.30
2023-03-17T16:10:43.068Z,7.68
2023-03-17T16:13:12.457Z,8.23
2023-03-17T16:15:42.796Z,9.60
2023-03-17T16:18:14.950Z,10.13
2023-03-17T16:20:45.214Z,12.57
2023-03-17T16:23:16.173Z,8.35
2023-03-17T16:25:45.067Z,11.02
2023-03-17T16:28:17.645Z,10.77
2023-03-17T16:30:47.296Z,8.50
2023-03-17T16:33:17.929Z,9.35
2023-03-17T16:35:48.500Z,9.40
2023-03-17T16:38:18.028Z,10.27
2023-03-17T16:40:47.517Z,10.95
2023-03-17T16:43:25.450Z,10.45
2023-03-17T16:45:55.991Z,10.05
2023-03-17T16:48:24.249Z,11.80
2023-03-17T16:50:53.002Z,12.52
2023-03-17T16:53:21.143Z,10.48
2023-03-17T16:55:49.761Z,10.23
2023-03-17T16:58:20.865Z,10.90
2023-03-17T17:00:50.508Z,12.90
2023-03-17T17:03:18.928Z,12.10
2023-03-17T17:05:47.145Z,12.90
2023-03-17T17:08:15.465Z,12.52
2023-03-17T17:10:43.828Z,11.38
2023-03-17T17:13:13.601Z,10.98
2023-03-17T17:15:43.780Z,10.88
2023-03-17T17:18:15.842Z,9.32
2023-03-17T17:23:15.334Z,8.90
2023-03-17T17:25:44.138Z,8.60
2023-03-17T17:28:13.608Z,9.00
2023-03-17T17:30:45.288Z,9.00
2023-03-17T17:33:13.574Z,10.40
2023-03-17T17:35:42.081Z,9.98
2023-03-17T17:38:17.990Z,9.82
2023-03-17T17:40:46.319Z,9.90
2023-03-17T17:43:14.334Z,11.07
2023-03-17T17:45:44.067Z,11.55
2023-03-17T17:48:12.331Z,12.63
2023-03-17T17:50:40.679Z,10.90
2023-03-17T17:53:11.934Z,11.13
2023-03-17T17:55:41.071Z,12.90
2023-03-17T17:58:09.262Z,14.32
2023-03-17T18:00:37.885Z,13.52
2023-03-17T18:03:07.129Z,13.90
2023-03-17T18:05:36.123Z,13.88
2023-03-17T18:08:04.262Z,12.48
2023-03-17T18:10:33.326Z,14.75
2023-03-17T18:13:01.549Z,13.73
2023-03-17T18:15:30.870Z,14.23
2023-03-17T18:17:58.966Z,13.95
2023-03-17T18:20:28.993Z,14.95
2023-03-17T18:22:56.943Z,13.63
2023-03-17T18:25:27.120Z,14.32
2023-03-17T18:27:56.281Z,15.63
2023-03-17T18:30:29.188Z,13.32
2023-03-17T18:33:00.752Z,15.02
2023-03-17T18:35:30.551Z,14.70
2023-03-17T18:37:58.925Z,13.43
2023-03-17T18:40:27.608Z,14.45
2023-03-17T18:42:55.923Z,13.82
2023-03-17T18:45:24.330Z,13.43
2023-03-17T18:47:52.446Z,14.68
2023-03-17T18:50:21.921Z,15.35
2023-03-17T18:52:51.717Z,15.65
2023-03-17T18:55:20.419Z,16.00
2023-03-17T18:57:48.521Z,17.27
2023-03-17T19:00:18.559Z,16.35
2023-03-17T19:02:47.783Z,16.65
2023-03-17T19:05:22.514Z,17.73
2023-03-17T19:10:48.292Z,17.20
2023-03-17T19:13:16.853Z,18.50
2023-03-17T19:15:44.758Z,18.00
2023-03-17T19:18:13.099Z,20.42
2023-03-17T19:20:41.218Z,21.08
2023-03-17T19:23:09.426Z,21.17
2023-03-17T19:25:37.462Z,20.85
2023-03-17T19:28:07.084Z,19.60
2023-03-17T19:30:35.872Z,20.52
2023-03-17T19:33:04.510Z,19.60
2023-03-17T19:35:32.634Z,18.17
2023-03-17T19:38:01.170Z,18.17
2023-03-17T19:40:29.352Z,18.80
2023-03-17T19:42:57.759Z,19.75
2023-03-17T19:45:27.163Z,20.55
2023-03-17T19:47:55.597Z,20.05
2023-03-17T19:50:23.698Z,18.10
2023-03-17T19:52:53.040Z,19.50
2023-03-17T19:55:21.331Z,19.25
2023-03-17T19:57:49.748Z,19.05
2023-03-17T20:00:18.615Z,19.13
2023-03-17T20:02:48.550Z,18.88
2023-03-17T20:05:16.989Z,18.13
2023-03-17T20:07:46.368Z,18.38
2023-03-17T20:10:14.408Z,20.30
2023-03-17T20:12:43.436Z,19.02
2023-03-17T20:15:12.993Z,18.35
2023-03-17T20:17:41.826Z,18.25
2023-03-17T20:20:12.347Z,19.75
2023-03-17T20:22:43.574Z,21.50
2023-03-17T20:25:12.289Z,20.73
2023-03-17T20:27:40.647Z,20.90
2023-03-17T20:30:12.151Z,20.80
2023-03-17T20:32:40.587Z,20.20
2023-03-17T20:35:09.322Z,20.52
2023-03-17T20:37:39.453Z,20.00
2023-03-17T20:40:09.896Z,21.70
2023-03-17T20:42:38.088Z,21.17
2023-03-17T20:45:07.429Z,22.27
2023-03-17T20:47:36.094Z,21.30
2023-03-17T20:50:06.234Z,20.35
2023-03-17T20:52:35.609Z,21.63
2023-03-17T20:55:06.091Z,21.33
2023-03-17T20:57:35.302Z,22.55
2023-03-17T21:00:04.506Z,24.80
2023-03-17T21:02:32.830Z,23.83
2023-03-17T21:05:00.787Z,22.75
2023-03-17T21:07:29.015Z,23.60
2023-03-17T21:09:57.340Z,23.75
2023-03-17T21:12:26.908Z,23.95
2023-03-17T21:14:55.014Z,27.13
2023-03-17T21:17:24.443Z,28.58
2023-03-17T21:19:54.018Z,26.73
2023-03-17T21:22:22.668Z,28.20
2023-03-17T21:24:51.285Z,31.73
2023-03-17T21:27:20.056Z,53.60
2023-03-17T21:29:49.407Z,55.03
2023-03-17T21:32:17.567Z,56.25
2023-03-17T21:34:47.109Z,47.15
2023-03-17T21:37:16.076Z,46.53
2023-03-17T21:39:44.604Z,41.22
2023-03-17T21:42:13.593Z,43.25
2023-03-17T21:44:42.209Z,43.35
2023-03-17T21:47:11.735Z,41.45
2023-03-17T21:49:39.663Z,57.90
2023-03-17T21:52:08.113Z,90.45
2023-03-17T21:54:36.633Z,89.60
2023-03-17T21:57:05.161Z,67.97
2023-03-17T21:59:35.779Z,56.75
2023-03-17T22:02:04.007Z,40.55
2023-03-17T22:04:33.367Z,31.50
2023-03-17T22:07:04.311Z,34.78
2023-03-17T22:09:32.588Z,33.80
2023-03-17T22:12:00.795Z,32.22
2023-03-17T22:14:28.783Z,33.03
2023-03-17T22:16:58.065Z,32.33
2023-03-17T22:19:26.076Z,48.67
2023-03-17T22:21:56.481Z,35.03
2023-03-17T22:24:25.454Z,23.98
2023-03-17T22:26:53.624Z,26.73
2023-03-17T22:29:21.780Z,31.33
2023-03-17T22:31:50.025Z,26.00
2023-03-17T22:34:18.146Z,26.70
2023-03-17T22:36:46.318Z,27.08
2023-03-17T22:39:15.903Z,28.15
2023-03-17T22:41:44.761Z,30.95
2023-03-17T22:44:12.912Z,29.67
2023-03-17T22:46:41.355Z,28.63
2023-03-17T22:49:09.435Z,28.02
2023-03-17T22:51:38.191Z,26.92
2023-03-17T22:54:06.478Z,28.77
2023-03-17T22:56:36.088Z,27.77
2023-03-17T22:59:04.406Z,26.75
2023-03-17T23:01:33.180Z,25.70
2023-03-17T23:04:01.621Z,26.50
2023-03-17T23:06:29.851Z,30.40
2023-03-17T23:08:57.866Z,27.77
2023-03-17T23:11:27.011Z,30.15
2023-03-17T23:13:56.635Z,29.88
2023-03-17T23:16:24.975Z,31.05
2023-03-17T23:18:53.125Z,43.65
2023-03-17T23:21:24.962Z,39.28
2023-03-17T23:23:53.322Z,42.20
2023-03-17T23:26:22.013Z,37.90
2023-03-17T23:28:50.073Z,31.23
2023-03-17T23:31:20.510Z,30.88
2023-03-17T23:33:49.901Z,28.98
2023-03-17T23:36:18.686Z,27.23
2023-03-17T23:38:47.278Z,28.63
2023-03-17T23:41:15.900Z,29.02
2023-03-17T23:43:44.133Z,29.40
2023-03-17T23:46:13.436Z,29.42
2023-03-17T23:48:43.196Z,29.20
2023-03-17T23:51:12.441Z,42.47
2023-03-17T23:53:41.663Z,42.13
2023-03-17T23:56:11.246Z,38.13
2023-03-17T23:58:39.475Z,36.97
